Time;durP1;ratioP1;P1;durP2;ratioP2;P2;SDS_P1;SDS_P2;PMS_P1;PMS_P2;Temp;Humidity;BMP_temperature;BMP_pressure;BME280_temperature;BME280_humidity;BME280_pressure;Samples;Min_cycle;Max_cycle;Signal;HPM_P1;HPM_P2
2024/01/28 00:00:36;;;;;;;10.23;3.40;;;;;;;;;;5103317;28;20028;-71
2024/01/28 00:03:01;;;;;;;7.43;3.08;;;2.10;99.90;;;;;;5101686;28;20032;-72
2024/01/28 00:05:27;;;;;;;9.90;3.10;;;2.20;99.90;;;;;;5103224;28;20047;-72
2024/01/28 00:07:53;;;;;;;15.27;5.35;;;2.40;98.10;;;;;;5101604;28;20101;-71
2024/01/28 00:10:18;;;;;;;14.00;3.80;;;2.10;99.90;;;;;;5103116;28;20035;-71
2024/01/28 00:12:44;;;;;;;15.30;4.15;;;2.20;99.90;;;;;;5093504;28;20075;-71
2024/01/28 00:15:10;;;;;;;7.60;3.00;;;2.20;99.90;;;;;;5102906;28;20049;-72
2024/01/28 00:17:37;;;;;;;14.65;3.42;;;;;;;;;;5102942;28;20034;-72
2024/01/28 00:20:05;;;;;;;6.38;3.28;;;2.00;95.00;;;;;;5102942;28;20055;-71
2024/01/28 00:22:31;;;;;;;7.27;3.20;;;2.00;99.90;;;;;;5102652;28;20023;-73
2024/01/28 00:24:57;;;;;;;12.20;3.70;;;;;;;;;;5102961;28;20080;-72
2024/01/28 00:27:23;;;;;;;11.65;3.17;;;1.90;99.90;;;;;;5102485;28;20020;-73
2024/01/28 00:29:48;;;;;;;8.57;3.00;;;2.00;99.90;;;;;;5102511;28;20026;-72
2024/01/28 00:32:14;;;;;;;11.85;5.13;;;2.00;99.90;;;;;;5102213;28;20296;-72
2024/01/28 00:34:41;;;;;;;13.88;3.38;;;2.00;99.90;;;;;;5102683;28;20549;-73
2024/01/28 00:37:07;;;;;;;5.82;2.20;;;;;;;;;;5102553;28;20051;-71
2024/01/28 00:39:35;;;;;;;8.68;4.00;;;;;;;;;;5082206;28;20099;-71
2024/01/28 00:42:01;;;;;;;10.57;3.75;;;;;;;;;;5082233;28;20036;-70
2024/01/28 00:44:27;;;;;;;17.77;4.20;;;;;;;;;;5081729;28;20040;-69
2024/01/28 00:46:55;;;;;;;9.45;3.33;;;1.80;96.20;;;;;;5081802;28;20099;-70
2024/01/28 00:49:23;;;;;;;12.40;4.82;;;;;;;;;;5081782;28;20024;-69
2024/01/28 00:51:49;;;;;;;14.63;4.43;;;2.00;99.90;;;;;;5081699;28;20235;-71
2024/01/28 00:54:15;;;;;;;12.80;4.95;;;1.90;99.90;;;;;;5082022;28;20265;-70
2024/01/28 00:56:41;;;;;;;11.52;4.60;;;1.90;99.90;;;;;;5081901;28;20078;-70
2024/01/28 00:59:07;;;;;;;13.57;3.47;;;;;;;;;;5081757;28;20028;-70
2024/01/28 01:01:33;;;;;;;18.80;3.83;;;;;;;;;;5081679;28;20024;-70
2024/01/28 01:03:59;;;;;;;10.02;3.63;;;;;;;;;;5080433;28;20040;-70
2024/01/28 01:06:24;;;;;;;12.07;3.53;;;1.80;99.90;;;;;;5081723;28;20039;-70
2024/01/28 01:08:50;;;;;;;8.60;3.25;;;1.80;99.90;;;;;;5081356;28;20296;-71
2024/01/28 01:11:16;;;;;;;12.68;3.80;;;;;;;;;;5081430;28;20332;-70
2024/01/28 01:13:42;;;;;;;11.98;3.83;;;;;;;;;;5081600;28;20028;-70
2024/01/28 01:16:08;;;;;;;10.27;3.85;;;1.90;99.90;;;;;;5081360;28;20048;-70
2024/01/28 01:18:34;;;;;;;13.00;4.30;;;;;;;;;;5081496;28;20035;-70
2024/01/28 01:21:00;;;;;;;9.10;3.70;;;1.70;99.90;;;;;;5081174;28;20024;-70
2024/01/28 01:23:26;;;;;;;9.45;4.43;;;;;;;;;;5081243;28;20261;-70
2024/01/28 01:25:51;;;;;;;10.25;3.92;;;1.60;99.90;;;;;;5081410;28;20012;-70
2024/01/28 01:28:17;;;;;;;12.25;3.90;;;2.00;99.90;;;;;;5081251;28;20607;-69
2024/01/28 01:30:43;;;;;;;14.15;5.35;;;;;;;;;;5078537;28;20287;-69
2024/01/28 01:33:09;;;;;;;15.57;5.25;;;;;;;;;;5099471;28;20071;-70
2024/01/28 01:35:36;;;;;;;13.02;3.85;;;;;;;;;;5101315;28;20047;-71
2024/01/28 01:38:01;;;;;;;14.48;4.28;;;1.50;99.90;;;;;;5101568;28;20059;-71
2024/01/28 01:40:27;;;;;;;9.18;3.72;;;;;;;;;;5101355;28;20036;-72
2024/01/28 01:42:53;;;;;;;12.88;4.28;;;;;;;;;;5101240;28;20035;-72
2024/01/28 01:45:19;;;;;;;10.60;3.85;;;;;;;;;;5101431;28;20036;-72
2024/01/28 01:47:45;;;;;;;10.82;3.97;;;1.50;99.90;;;;;;5101287;28;20034;-71
2024/01/28 01:50:11;;;;;;;13.02;4.40;;;1.40;99.90;;;;;;5101162;28;20031;-72
2024/01/28 01:52:39;;;;;;;13.07;4.30;;;1.50;99.90;;;;;;5101148;28;20020;-71
2024/01/28 01:55:06;;;;;;;13.88;4.97;;;1.30;99.90;;;;;;5101231;28;20227;-71
2024/01/28 01:57:32;;;;;;;8.02;4.10;;;1.30;99.90;;;;;;5101122;28;20028;-72
2024/01/28 01:59:58;;;;;;;10.90;4.40;;;;;;;;;;5101197;28;20065;-72
2024/01/28 02:02:26;;;;;;;14.90;4.50;;;1.30;97.50;;;;;;5099859;28;20031;-70
2024/01/28 02:04:52;;;;;;;11.38;4.07;;;;;;;;;;5100835;28;20331;-70
2024/01/28 02:07:17;;;;;;;10.52;4.57;;;1.30;99.90;;;;;;5100853;28;20027;-71
2024/01/28 02:09:44;;;;;;;11.23;5.25;;;;;;;;;;5100884;28;20357;-71
2024/01/28 02:12:10;;;;;;;8.00;4.00;;;;;;;;;;5100779;28;20083;-70
2024/01/28 02:14:36;;;;;;;13.85;4.97;;;1.20;99.90;;;;;;5100911;28;20028;-69
2024/01/28 02:17:01;;;;;;;16.30;5.07;;;1.20;99.90;;;;;;5100826;28;20028;-68
2024/01/28 02:19:27;;;;;;;9.43;4.97;;;1.20;99.90;;;;;;5100901;28;20020;-68
2024/01/28 02:21:53;;;;;;;14.48;4.60;;;1.10;99.90;;;;;;5104888;28;20016;-68
2024/01/28 02:24:20;;;;;;;15.70;4.43;;;1.10;99.90;;;;;;5104850;28;20028;-69
2024/01/28 02:26:46;;;;;;;13.43;4.13;;;;;;;;;;5104913;28;20083;-69
2024/01/28 02:29:12;;;;;;;11.63;3.92;;;;;;;;;;5105019;28;20476;-68
2024/01/28 02:31:37;;;;;;;10.40;4.43;;;1.00;99.90;;;;;;5104692;28;20040;-69
2024/01/28 02:34:04;;;;;;;11.90;4.65;;;0.90;99.90;;;;;;5105082;28;20324;-69
2024/01/28 02:36:30;;;;;;;12.32;4.50;;;;;;;;;;5095696;28;20074;-69
2024/01/28 02:38:56;;;;;;;15.18;4.25;;;0.90;99.90;;;;;;5084369;28;20032;-70
2024/01/28 02:41:22;;;;;;;11.13;4.20;;;0.90;99.90;;;;;;5083033;28;20025;-69
2024/01/28 02:43:47;;;;;;;9.85;3.85;;;0.90;99.90;;;;;;5084328;28;20131;-69
2024/01/28 02:46:14;;;;;;;13.13;4.68;;;;;;;;;;5084095;28;20058;-68
2024/01/28 02:48:41;;;;;;;9.60;4.20;;;;;;;;;;5084066;28;20075;-68
2024/01/28 02:51:07;;;;;;;10.00;4.15;;;;;;;;;;5084130;28;20028;-69
2024/01/28 02:53:32;;;;;;;16.38;4.10;;;0.90;99.90;;;;;;5084051;28;20101;-69
2024/01/28 02:56:00;;;;;;;11.32;4.55;;;0.80;99.90;;;;;;5084158;28;20021;-70
2024/01/28 02:58:26;;;;;;;15.20;4.40;;;0.80;99.20;;;;;;5083943;28;20095;-69
2024/01/28 03:00:52;;;;;;;13.07;3.90;;;0.90;99.90;;;;;;5083889;28;20327;-70
2024/01/28 03:03:18;;;;;;;11.25;4.93;;;0.80;99.90;;;;;;5083665;28;20039;-70
2024/01/28 03:05:44;;;;;;;9.90;2.88;;;0.90;99.90;;;;;;5084096;28;20042;-70
2024/01/28 03:08:10;;;;;;;9.65;3.38;;;1.00;99.90;;;;;;5083868;28;20036;-69
2024/01/28 03:10:37;;;;;;;13.55;4.13;;;;;;;;;;5083945;28;20029;-69
2024/01/28 03:13:03;;;;;;;11.35;3.33;;;;;;;;;;5083744;28;20040;-70
2024/01/28 03:15:29;;;;;;;11.10;4.10;;;;;;;;;;5083672;28;20216;-70
2024/01/28 03:17:55;;;;;;;13.73;3.63;;;1.00;99.90;;;;;;5083813;28;20025;-69
2024/01/28 03:20:21;;;;;;;19.92;5.13;;;;;;;;;;5083917;28;20099;-70
2024/01/28 03:22:47;;;;;;;13.68;4.22;;;;;;;;;;5083438;28;20284;-69
2024/01/28 03:25:15;;;;;;;15.43;4.00;;;0.70;99.90;;;;;;5083843;28;20094;-69
2024/01/28 03:27:40;;;;;;;12.63;3.90;;;0.90;99.90;;;;;;5083524;28;20024;-69
2024/01/28 03:30:08;;;;;;;9.68;3.53;;;;;;;;;;5083705;28;20221;-69
2024/01/28 03:32:34;;;;;;;11.63;3.47;;;1.10;99.90;;;;;;5087875;28;20028;-68
2024/01/28 03:35:00;;;;;;;16.02;4.75;;;0.90;99.90;;;;;;5103774;28;20047;-68
2024/01/28 03:37:27;;;;;;;7.43;3.33;;;;;;;;;;5103796;28;20035;-71
2024/01/28 03:39:53;;;;;;;14.18;5.50;;;;;;;;;;5103559;28;20350;-70
2024/01/28 03:42:18;;;;;;;9.77;4.20;;;1.00;99.90;;;;;;5102113;28;20065;-70
2024/01/28 03:44:47;;;;;;;11.18;5.07;;;0.90;99.90;;;;;;5103365;28;20027;-70
2024/01/28 03:47:13;;;;;;;16.00;6.17;;;;;;;;;;5103458;28;20047;-69
2024/01/28 03:49:38;;;;;;;16.77;4.97;;;1.10;99.90;;;;;;5103435;28;20069;-70
2024/01/28 03:52:05;;;;;;;13.57;4.57;;;;;;;;;;5103313;28;20024;-71
2024/01/28 03:54:30;;;;;;;12.90;4.60;;;1.10;99.90;;;;;;5103581;28;20069;-70
2024/01/28 03:56:56;;;;;;;17.35;4.53;;;1.20;99.90;;;;;;5103467;28;20557;-70
2024/01/28 03:59:22;;;;;;;19.10;5.35;;;;;;;;;;5103430;28;20056;-70
2024/01/28 04:01:48;;;;;;;18.05;4.75;;;;;;;;;;5103204;28;20320;-70
2024/01/28 04:04:17;;;;;;;12.00;4.53;;;1.10;99.90;;;;;;5103049;28;20261;-70
2024/01/28 04:06:43;;;;;;;12.38;4.70;;;1.00;99.60;;;;;;5103071;28;20363;-70
2024/01/28 04:09:09;;;;;;;20.10;4.35;;;;;;;;;;5101666;28;20218;-70
2024/01/28 04:11:35;;;;;;;11.70;6.05;;;0.90;99.90;;;;;;5102797;28;20047;-67
2024/01/28 04:14:01;;;;;;;9.52;4.50;;;0.80;99.90;;;;;;5102870;28;20035;-66
2024/01/28 04:16:28;;;;;;;12.43;4.47;;;;;;;;;;5102709;28;20024;-68
2024/01/28 04:18:54;;;;;;;11.90;4.63;;;0.90;99.90;;;;;;5103039;28;20073;-68
2024/01/28 04:21:23;;;;;;;8.75;4.05;;;0.70;99.90;;;;;;5102570;28;20012;-67
2024/01/28 04:23:51;;;;;;;10.80;5.22;;;0.70;99.90;;;;;;5102648;28;20031;-68
2024/01/28 04:26:17;;;;;;;14.68;4.35;;;;;;;;;;5102744;28;20051;-67
2024/01/28 04:28:45;;;;;;;8.82;4.35;;;;;;;;;;5102731;28;20024;-67
2024/01/28 04:31:13;;;;;;;9.98;4.68;;;0.50;99.90;;;;;;5102340;28;20107;-68
2024/01/28 04:33:38;;;;;;;11.77;3.90;;;;;;;;;;5102473;28;20028;-68
2024/01/28 04:36:05;;;;;;;12.73;5.00;;;;;;;;;;5102481;28;20317;-68
2024/01/28 04:38:31;;;;;;;22.13;5.55;;;0.60;99.90;;;;;;5102259;28;20024;-68
2024/01/28 04:40:57;;;;;;;13.82;5.75;;;;;;;;;;5102324;28;20324;-68
2024/01/28 04:43:23;;;;;;;15.43;6.28;;;;;;;;;;5101431;28;20559;-68
2024/01/28 04:45:49;;;;;;;15.10;5.53;;;;;;;;;;5102246;28;20083;-68
2024/01/28 04:48:15;;;;;;;18.00;5.45;;;0.50;99.90;;;;;;5102236;28;20073;-68
2024/01/28 04:50:41;;;;;;;15.23;5.47;;;0.50;99.90;;;;;;5102091;28;20023;-68
2024/01/28 04:53:07;;;;;;;15.75;5.53;;;;;;;;;;5102073;28;20024;-68
2024/01/28 04:55:34;;;;;;;15.02;4.63;;;0.60;99.90;;;;;;5101901;28;20328;-68
2024/01/28 04:58:00;;;;;;;19.92;5.05;;;;;;;;;;5102106;28;20087;-68
2024/01/28 05:00:25;;;;;;;9.73;4.80;;;0.30;99.90;;;;;;5102190;28;20027;-68
2024/01/28 05:02:55;;;;;;;17.70;5.10;;;;;;;;;;5101745;28;20346;-69
2024/01/28 05:05:21;;;;;;;17.40;5.95;;;0.50;99.90;;;;;;5101930;28;20116;-68
2024/01/28 05:07:47;;;;;;;15.90;5.05;;;0.50;99.90;;;;;;5101846;28;20016;-69
2024/01/28 05:10:12;;;;;;;14.77;6.85;;;0.40;99.90;;;;;;5101872;28;20051;-68
2024/01/28 05:12:38;;;;;;;17.88;5.32;;;0.50;99.90;;;;;;5101819;28;20024;-69
2024/01/28 05:15:06;;;;;;;13.50;5.45;;;0.40;99.90;;;;;;5101707;28;20311;-67
2024/01/28 05:17:35;;;;;;;15.43;6.80;;;0.20;99.90;;;;;;5101886;28;20031;-69
2024/01/28 05:20:02;;;;;;;21.42;6.07;;;0.10;99.90;;;;;;5101848;28;20020;-68
2024/01/28 05:22:28;;;;;;;20.05;6.30;;;;;;;;;;5101589;28;20034;-68
2024/01/28 05:24:55;;;;;;;27.20;6.97;;;;;;;;;;5101383;28;20102;-69
2024/01/28 05:27:21;;;;;;;16.70;5.97;;;0.10;99.90;;;;;;5101319;28;20024;-71
2024/01/28 05:29:46;;;;;;;15.63;6.70;;;0.00;99.90;;;;;;5101093;28;20031;-70
2024/01/28 05:32:13;;;;;;;15.68;5.63;;;0.10;99.90;;;;;;5094264;28;20052;-71
2024/01/28 05:34:39;;;;;;;14.82;5.95;;;;;;;;;;5076268;28;20331;-71
2024/01/28 05:37:05;;;;;;;13.45;5.88;;;;;;;;;;5080914;28;20028;-71
2024/01/28 05:39:31;;;;;;;15.00;5.85;;;;;;;;;;5080927;28;20032;-72
2024/01/28 05:41:57;;;;;;;13.27;5.78;;;0.20;99.90;;;;;;5081163;28;20027;-68
2024/01/28 05:44:22;;;;;;;15.95;6.20;;;0.00;99.90;;;;;;5080913;28;20081;-68
2024/01/28 05:46:49;;;;;;;15.23;6.13;;;0.00;99.90;;;;;;5081070;28;20029;-72
2024/01/28 05:49:15;;;;;;;14.50;5.88;;;-0.10;99.90;;;;;;5080977;28;20103;-72
2024/01/28 05:51:41;;;;;;;14.60;5.65;;;0.00;99.90;;;;;;5080846;28;20024;-67
2024/01/28 05:54:07;;;;;;;12.73;6.50;;;;;;;;;;5079563;28;20020;-68
2024/01/28 05:56:33;;;;;;;16.23;6.60;;;;;;;;;;5079794;28;20343;-67
2024/01/28 05:58:58;;;;;;;16.42;5.85;;;0.10;99.90;;;;;;5080088;28;20016;-67
2024/01/28 06:01:24;;;;;;;19.77;6.35;;;;;;;;;;5080048;28;20096;-71
2024/01/28 06:03:50;;;;;;;18.98;6.55;;;;;;;;;;5080366;28;20040;-69
2024/01/28 06:06:16;;;;;;;15.52;6.20;;;;;;;;;;5080704;28;20372;-67
2024/01/28 06:08:42;;;;;;;14.77;6.45;;;-0.10;99.90;;;;;;5080735;28;20020;-67
2024/01/28 06:11:08;;;;;;;19.35;6.18;;;-0.10;99.90;;;;;;5080570;28;20035;-67
2024/01/28 06:13:33;;;;;;;9.98;5.32;;;-0.20;99.90;;;;;;5080700;28;20051;-69
2024/01/28 06:15:59;;;;;;;22.60;6.43;;;0.30;99.90;;;;;;5080682;28;20029;-69
2024/01/28 06:18:25;;;;;;;21.00;6.15;;;-0.30;99.90;;;;;;5080701;28;20036;-69
2024/01/28 06:20:52;;;;;;;23.73;5.97;;;-0.20;99.90;;;;;;5080662;28;20027;-70
2024/01/28 06:23:17;;;;;;;21.23;7.38;;;-0.20;99.90;;;;;;5080570;28;20095;-69
2024/01/28 06:25:43;;;;;;;15.70;6.80;;;;;;;;;;5080648;28;20031;-67
2024/01/28 06:28:09;;;;;;;22.77;6.07;;;-0.30;99.90;;;;;;5080713;28;20025;-67
2024/01/28 06:30:38;;;;;;;15.50;6.47;;;-0.10;99.90;;;;;;5080368;28;20056;-69
2024/01/28 06:33:04;;;;;;;19.33;6.97;;;-0.10;99.90;;;;;;5080888;28;20070;-67
2024/01/28 06:35:30;;;;;;;18.30;6.82;;;0.30;99.90;;;;;;5080521;28;20020;-68
2024/01/28 06:37:55;;;;;;;22.98;6.40;;;0.10;99.90;;;;;;5079249;28;20043;-67
2024/01/28 06:40:22;;;;;;;16.98;6.97;;;;;;;;;;5080331;28;20032;-67
2024/01/28 06:42:47;;;;;;;15.10;7.00;;;0.10;99.90;;;;;;5080262;28;20201;-71
2024/01/28 06:45:13;;;;;;;18.17;5.95;;;0.20;99.90;;;;;;5079120;28;20031;-71
2024/01/28 06:47:39;;;;;;;17.55;6.45;;;;;;;;;;5080536;28;20091;-70
2024/01/28 06:50:05;;;;;;;17.55;6.57;;;0.20;99.90;;;;;;5080353;28;20020;-69
2024/01/28 06:52:31;;;;;;;18.73;6.40;;;;;;;;;;5080378;28;20337;-71
2024/01/28 06:54:58;;;;;;;15.32;6.60;;;0.20;99.90;;;;;;5080224;28;20025;-71
2024/01/28 06:57:24;;;;;;;16.27;6.57;;;;;;;;;;5080428;28;20020;-72
2024/01/28 06:59:49;;;;;;;14.23;6.25;;;0.40;99.90;;;;;;5080197;28;20080;-71
2024/01/28 07:02:15;;;;;;;15.60;6.68;;;0.40;99.90;;;;;;5080256;28;20325;-70
2024/01/28 07:04:41;;;;;;;23.38;6.70;;;0.40;99.90;;;;;;5080020;28;20099;-70
2024/01/28 07:07:07;;;;;;;17.77;6.75;;;;;;;;;;5082783;28;20051;-70
2024/01/28 07:09:33;;;;;;;16.80;7.03;;;0.50;99.90;;;;;;5083834;28;20090;-71
2024/01/28 07:11:59;;;;;;;21.25;7.07;;;;;;;;;;5083984;28;20372;-69
2024/01/28 07:14:24;;;;;;;20.92;7.35;;;0.60;99.90;;;;;;5083699;28;20020;-71
2024/01/28 07:16:50;;;;;;;15.13;7.85;;;0.60;99.90;;;;;;5083643;28;20040;-68
2024/01/28 07:19:16;;;;;;;17.02;6.78;;;;;;;;;;5074726;28;20237;-69
2024/01/28 07:21:42;;;;;;;16.60;7.38;;;;;;;;;;5063580;28;20033;-70
2024/01/28 07:24:08;;;;;;;18.65;7.43;;;;;;;;;;5073376;28;20385;-71
2024/01/28 07:26:35;;;;;;;17.75;7.25;;;0.80;99.90;;;;;;5083816;28;20084;-71
2024/01/28 07:29:01;;;;;;;16.42;6.55;;;;;;;;;;5083381;28;20028;-71
2024/01/28 07:31:27;;;;;;;24.77;7.40;;;;;;;;;;5083375;28;20056;-69
2024/01/28 07:33:54;;;;;;;18.00;5.60;;;;;;;;;;5083340;28;20063;-70
2024/01/28 07:36:21;;;;;;;16.33;7.35;;;1.00;99.90;;;;;;5083424;28;20060;-72
2024/01/28 07:38:47;;;;;;;16.92;7.38;;;1.00;99.90;;;;;;5082047;28;20028;-72
2024/01/28 07:41:16;;;;;;;21.38;6.28;;;;;;;;;;5083165;28;20435;-67
2024/01/28 07:43:42;;;;;;;17.60;6.70;;;1.30;99.90;;;;;;5083408;28;20081;-70
2024/01/28 07:46:09;;;;;;;15.27;7.25;;;1.40;99.90;;;;;;5083481;28;20243;-68
2024/01/28 07:48:35;;;;;;;13.77;7.65;;;1.60;99.90;;;;;;5083221;28;20020;-71
2024/01/28 07:51:01;;;;;;;16.17;6.47;;;;;;;;;;5082818;28;20078;-71
2024/01/28 07:53:27;;;;;;;20.25;7.00;;;;;;;;;;5065610;28;20128;-72
2024/01/28 07:55:53;;;;;;;26.42;8.85;;;;;;;;;;5063000;28;20070;-72
2024/01/28 07:58:19;;;;;;;22.75;7.00;;;;;;;;;;5063197;28;20248;-71
2024/01/28 08:00:45;;;;;;;20.20;7.18;;;2.20;99.90;;;;;;5073872;28;20028;-72
2024/01/28 08:03:11;;;;;;;25.40;7.45;;;;;;;;;;5082728;28;20028;-71
2024/01/28 08:05:36;;;;;;;18.30;7.18;;;2.10;99.90;;;;;;5082804;28;20316;-72
2024/01/28 08:08:02;;;;;;;14.95;6.60;;;2.70;99.90;;;;;;5082736;28;20028;-71
2024/01/28 08:10:29;;;;;;;16.75;6.60;;;2.60;99.90;;;;;;5083028;28;20093;-71
2024/01/28 08:12:55;;;;;;;15.20;7.03;;;2.80;99.90;;;;;;5081451;28;20268;-71
2024/01/28 08:15:21;;;;;;;17.67;6.45;;;3.10;99.90;;;;;;5081429;28;20258;-71
2024/01/28 08:17:49;;;;;;;16.35;7.00;;;3.10;99.90;;;;;;5092026;28;20019;-71
2024/01/28 08:20:19;;;;;;;16.52;8.48;;;5.40;99.90;;;;;;5102810;28;20229;-71
2024/01/28 08:22:45;;;;;;;19.65;6.97;;;;;;;;;;5098889;28;20028;-71
2024/01/28 08:25:14;;;;;;;18.20;6.75;;;3.10;99.90;;;;;;5082493;28;20047;-70
2024/01/28 08:27:40;;;;;;;21.13;8.10;;;3.60;99.90;;;;;;5088131;28;20028;-68
2024/01/28 08:30:07;;;;;;;15.95;7.20;;;3.30;99.90;;;;;;5082310;28;20312;-67
2024/01/28 08:32:34;;;;;;;23.60;8.27;;;;;;;;;;5082161;28;20051;-67
2024/01/28 08:34:59;;;;;;;15.50;6.95;;;3.30;99.90;;;;;;5082385;28;20201;-68
2024/01/28 08:37:25;;;;;;;21.58;6.63;;;3.30;99.90;;;;;;5082358;28;20202;-67
2024/01/28 08:39:51;;;;;;;18.02;7.07;;;3.40;99.90;;;;;;5082200;28;20021;-67
2024/01/28 08:42:18;;;;;;;12.02;5.72;;;3.40;99.90;;;;;;5082367;28;20264;-68
2024/01/28 08:44:45;;;;;;;17.30;5.57;;;;;;;;;;5081920;28;20113;-67
2024/01/28 08:47:11;;;;;;;17.02;5.85;;;3.50;99.90;;;;;;5082033;28;20024;-67
2024/01/28 08:49:36;;;;;;;16.85;6.65;;;3.80;99.90;;;;;;5081308;28;20087;-67
2024/01/28 08:52:02;;;;;;;17.17;5.88;;;3.70;99.90;;;;;;5082094;28;20017;-67
2024/01/28 08:54:30;;;;;;;12.35;4.82;;;;;;;;;;5080987;28;20028;-67
2024/01/28 08:56:59;;;;;;;12.85;5.85;;;3.90;99.90;;;;;;5080292;28;20134;-67
2024/01/28 08:59:25;;;;;;;19.75;6.47;;;;;;;;;;5080112;28;20375;-68
2024/01/28 09:01:51;;;;;;;19.45;6.25;;;;;;;;;;5080431;28;20032;-67
2024/01/28 09:04:18;;;;;;;13.35;5.88;;;4.40;99.90;;;;;;5080138;28;20335;-67
2024/01/28 09:06:44;;;;;;;14.43;6.15;;;;;;;;;;5080482;28;20016;-68
2024/01/28 09:09:10;;;;;;;19.92;6.10;;;;;;;;;;5080487;28;20252;-67
2024/01/28 09:11:37;;;;;;;14.73;6.10;;;;;;;;;;5080929;28;20025;-68
2024/01/28 09:14:03;;;;;;;16.98;7.22;;;4.40;99.90;;;;;;5080117;28;20359;-67
2024/01/28 09:16:28;;;;;;;13.20;5.38;;;4.80;99.90;;;;;;5081032;28;20020;-67
2024/01/28 09:18:54;;;;;;;16.42;6.22;;;;;;;;;;5081467;28;20048;-67
2024/01/28 09:21:20;;;;;;;19.63;7.47;;;;;;;;;;5081673;28;20028;-68
2024/01/28 09:23:47;;;;;;;11.77;5.75;;;;;;;;;;5081341;28;20036;-68
2024/01/28 09:26:13;;;;;;;16.58;6.38;;;5.00;99.90;;;;;;5081284;28;20021;-68
2024/01/28 09:28:39;;;;;;;8.68;4.15;;;4.90;99.90;;;;;;5080991;28;20020;-68
2024/01/28 09:31:08;;;;;;;12.50;5.60;;;5.00;95.40;;;;;;5080976;28;20382;-68
2024/01/28 09:33:34;;;;;;;16.10;5.60;;;5.00;99.90;;;;;;5081429;28;20031;-68
2024/01/28 09:36:01;;;;;;;16.15;6.25;;;5.10;95.10;;;;;;5081162;28;20216;-68
2024/01/28 09:38:27;;;;;;;16.30;5.65;;;;;;;;;;5081389;28;20232;-68
2024/01/28 09:40:53;;;;;;;10.75;5.50;;;5.30;99.90;;;;;;5081207;28;20062;-68
2024/01/28 09:43:30;;;;;;;14.63;6.07;;;5.20;99.90;;;;;;5080788;28;20024;-68
2024/01/28 09:45:56;;;;;;;17.50;5.88;;;5.20;99.20;;;;;;5081038;28;20092;-68
2024/01/28 09:48:22;;;;;;;16.98;5.07;;;;;;;;;;5081169;28;20032;-67
2024/01/28 09:50:48;;;;;;;16.80;6.13;;;5.50;97.80;;;;;;5081119;28;20082;-68
2024/01/28 09:53:14;;;;;;;13.63;5.57;;;5.40;99.90;;;;;;5081114;28;20246;-68
2024/01/28 09:55:40;;;;;;;12.77;4.95;;;6.00;96.60;;;;;;5080879;28;20358;-68
2024/01/28 09:58:06;;;;;;;12.43;5.35;;;;;;;;;;5081369;28;20088;-67
2024/01/28 10:00:32;;;;;;;16.95;5.88;;;5.80;93.40;;;;;;5080820;28;20059;-68
2024/01/28 10:02:57;;;;;;;13.48;5.43;;;5.90;94.80;;;;;;5080738;28;20020;-68
2024/01/28 10:05:23;;;;;;;17.67;5.93;;;6.00;99.90;;;;;;5080701;28;20031;-68
2024/01/28 10:07:58;;;;;;;10.13;4.63;;;5.80;94.20;;;;;;5080851;28;20047;-68
2024/01/28 10:10:24;;;;;;;9.77;4.78;;;;;;;;;;5080932;28;20025;-68
2024/01/28 10:12:50;;;;;;;16.42;5.90;;;5.90;99.10;;;;;;5081179;28;20016;-68
2024/01/28 10:15:17;;;;;;;10.35;4.90;;;5.90;90.60;;;;;;5080870;28;20380;-68
2024/01/28 10:17:48;;;;;;;11.43;4.90;;;6.00;94.70;;;;;;5081100;28;20087;-68
2024/01/28 10:20:22;;;;;;;13.98;5.10;;;5.90;99.10;;;;;;5080940;28;20118;-68
2024/01/28 10:22:48;;;;;;;18.13;6.32;;;;;;;;;;5081091;28;20032;-68
2024/01/28 10:25:16;;;;;;;11.57;5.57;;;6.30;98.60;;;;;;5080658;28;20317;-68
2024/01/28 10:27:42;;;;;;;12.20;4.85;;;6.30;89.30;;;;;;5080864;28;20099;-68
2024/01/28 10:30:10;;;;;;;13.43;5.65;;;6.40;87.90;;;;;;5080017;28;20060;-68
2024/01/28 10:32:36;;;;;;;13.52;5.85;;;6.50;92.00;;;;;;5080399;28;20056;-68
2024/01/28 10:35:02;;;;;;;9.48;4.60;;;;;;;;;;5080471;28;20367;-68
2024/01/28 10:37:31;;;;;;;10.55;5.50;;;6.60;95.30;;;;;;5080795;28;20055;-68
2024/01/28 10:39:58;;;;;;;12.32;4.40;;;6.70;84.20;;;;;;5080521;28;20032;-68
2024/01/28 10:42:25;;;;;;;7.70;3.88;;;6.70;95.20;;;;;;5083869;28;20028;-68
2024/01/28 10:44:52;;;;;;;8.55;4.10;;;;;;;;;;5084173;28;20386;-68
2024/01/28 10:47:18;;;;;;;15.02;4.43;;;;;;;;;;5084286;28;20024;-67
2024/01/28 10:49:47;;;;;;;10.43;3.97;;;6.70;93.70;;;;;;5084194;28;20091;-68
2024/01/28 10:52:15;;;;;;;11.68;3.85;;;6.90;83.10;;;;;;5084275;28;20055;-68
2024/01/28 10:54:42;;;;;;;8.73;3.22;;;7.10;94.20;;;;;;5084230;28;20091;-68
2024/01/28 10:57:09;;;;;;;14.07;4.43;;;7.20;80.00;;;;;;5084208;28;20325;-68
2024/01/28 10:59:37;;;;;;;11.57;4.30;;;7.30;93.40;;;;;;5084010;28;20028;-68
2024/01/28 11:02:04;;;;;;;12.85;4.75;;;7.30;78.60;;;;;;5084342;28;20027;-68
2024/01/28 11:04:33;;;;;;;9.63;4.63;;;7.50;92.90;;;;;;5084187;28;20055;-68
2024/01/28 11:06:59;;;;;;;8.40;3.83;;;;;;;;;;5084013;28;20036;-68
2024/01/28 11:09:26;;;;;;;6.78;4.15;;;7.50;91.80;;;;;;5082742;28;20020;-69
2024/01/28 11:11:51;;;;;;;9.38;3.20;;;7.70;91.70;;;;;;5083995;28;20316;-68
2024/01/28 11:14:18;;;;;;;8.32;4.70;;;7.70;74.20;;;;;;5083848;28;20092;-68
2024/01/28 11:16:46;;;;;;;12.60;4.13;;;7.70;91.10;;;;;;5084301;28;20116;-68
2024/01/28 11:19:14;;;;;;;12.40;3.75;;;7.70;91.00;;;;;;5084083;28;20080;-68
2024/01/28 11:21:41;;;;;;;8.70;4.15;;;7.90;73.90;;;;;;5084166;28;20021;-68
2024/01/28 11:24:11;;;;;;;8.57;3.75;;;8.00;73.60;;;;;;5083758;28;20044;-68
2024/01/28 11:26:38;;;;;;;7.65;3.75;;;8.40;90.70;;;;;;5083764;28;20023;-68
2024/01/28 11:29:08;;;;;;;6.43;3.85;;;8.00;86.50;;;;;;5084166;28;20032;-68
2024/01/28 11:31:37;;;;;;;13.45;4.40;;;8.10;73.20;;;;;;5083777;28;20044;-68
2024/01/28 11:34:15;;;;;;;7.80;3.40;;;8.20;73.10;;;;;;5083802;28;20387;-68
2024/01/28 11:36:45;;;;;;;6.95;3.97;;;8.40;90.10;;;;;;5083821;28;20065;-68
2024/01/28 11:39:13;;;;;;;12.18;3.15;;;8.40;90.10;;;;;;5083640;28;20064;-68
2024/01/28 11:41:41;;;;;;;9.98;3.17;;;8.20;74.90;;;;;;5083309;28;20033;-68
2024/01/28 11:44:07;;;;;;;7.88;3.20;;;;;;;;;;5083425;28;20028;-68
2024/01/28 11:46:38;;;;;;;8.32;4.05;;;8.40;71.40;;;;;;5083318;28;20318;-68
2024/01/28 11:49:04;;;;;;;7.55;3.95;;;8.40;71.40;;;;;;5083462;28;20118;-68
2024/01/28 11:51:33;;;;;;;5.53;3.17;;;8.40;84.40;;;;;;5083432;28;20025;-68
2024/01/28 11:54:03;;;;;;;12.13;3.28;;;8.50;72.00;;;;;;5083678;28;20033;-68
2024/01/28 11:56:31;;;;;;;8.10;3.28;;;8.20;70.50;;;;;;5083209;28;20028;-68
2024/01/28 11:58:57;;;;;;;9.05;3.50;;;8.60;87.70;;;;;;5083060;28;20025;-68
2024/01/28 12:01:24;;;;;;;10.05;3.70;;;8.40;87.30;;;;;;5083178;28;20032;-68
2024/01/28 12:03:51;;;;;;;7.88;3.58;;;8.30;80.20;;;;;;5082896;28;20064;-68
2024/01/28 12:06:17;;;;;;;4.97;2.67;;;8.60;87.30;;;;;;5083030;28;20017;-69
2024/01/28 12:08:43;;;;;;;8.30;3.85;;;8.40;86.90;;;;;;5082722;28;20021;-68
2024/01/28 12:11:13;;;;;;;9.23;3.35;;;8.60;68.80;;;;;;5077583;28;20512;-69
2024/01/28 12:13:39;;;;;;;6.25;3.72;;;;;;;;;;5062614;28;20036;-68
2024/01/28 12:16:05;;;;;;;6.13;3.15;;;8.70;70.80;;;;;;5062881;28;20032;-68
2024/01/28 12:18:38;;;;;;;8.38;3.15;;;8.70;86.30;;;;;;5064079;28;20074;-68
2024/01/28 12:21:05;;;;;;;4.75;2.47;;;8.80;86.40;;;;;;5082951;28;20422;-68
2024/01/28 12:23:31;;;;;;;6.32;3.55;;;8.60;79.10;;;;;;5081456;28;20103;-68
2024/01/28 12:25:58;;;;;;;5.53;2.72;;;8.60;77.20;;;;;;5082925;28;20028;-68
2024/01/28 12:28:24;;;;;;;7.88;3.30;;;8.80;85.30;;;;;;5082546;28;20339;-68
2024/01/28 12:30:52;;;;;;;5.93;3.40;;;8.90;75.70;;;;;;5082444;28;20056;-68
2024/01/28 12:33:18;;;;;;;5.70;2.65;;;9.00;85.70;;;;;;5081170;28;20028;-69
2024/01/28 12:35:44;;;;;;;8.32;3.22;;;8.80;83.10;;;;;;5082498;28;20095;-68
2024/01/28 12:38:10;;;;;;;7.40;2.80;;;;;;;;;;5082435;28;20028;-68
2024/01/28 12:40:36;;;;;;;9.77;2.90;;;;;;;;;;5082423;28;20189;-68
2024/01/28 12:43:02;;;;;;;6.78;3.08;;;9.20;83.30;;;;;;5082001;28;20034;-68
2024/01/28 12:45:28;;;;;;;3.47;2.30;;;;;;;;;;5082227;28;20095;-68
2024/01/28 12:47:54;;;;;;;6.65;3.35;;;9.10;83.10;;;;;;5082221;28;20032;-68
2024/01/28 12:50:19;;;;;;;10.10;3.38;;;9.30;82.60;;;;;;5074521;28;20212;-68
2024/01/28 12:52:45;;;;;;;6.65;3.28;;;9.40;67.50;;;;;;5062095;28;20325;-69
2024/01/28 12:55:11;;;;;;;8.15;3.30;;;10.00;68.70;;;;;;5061912;28;20021;-69
2024/01/28 12:57:38;;;;;;;6.05;2.72;;;11.10;67.10;;;;;;5064413;28;20259;-70
2024/01/28 13:00:12;;;;;;;5.18;2.63;;;12.30;64.10;;;;;;5080597;28;20016;-69
2024/01/28 13:02:37;;;;;;;7.90;3.42;;;13.50;59.00;;;;;;5081966;28;20023;-70
2024/01/28 13:05:04;;;;;;;4.53;3.00;;;14.40;55.40;;;;;;5081239;28;20252;-69
2024/01/28 13:07:31;;;;;;;5.30;2.90;;;15.40;53.80;;;;;;5081790;28;20032;-70
2024/01/28 13:09:57;;;;;;;8.02;2.70;;;16.40;51.20;;;;;;5081767;28;20133;-70
2024/01/28 13:12:24;;;;;;;6.80;2.95;;;17.40;48.60;;;;;;5080696;28;20027;-70
2024/01/28 13:14:50;;;;;;;5.93;3.45;;;18.30;45.70;;;;;;5081035;28;20094;-70